createdAt,value
2019-01-15T00:02:32.679Z,2.67
2019-01-15T00:05:36.265Z,3.10
2019-01-15T00:08:39.914Z,2.97
2019-01-15T00:11:43.444Z,3.13
2019-01-15T00:14:46.826Z,3.23
2019-01-15T00:17:50.442Z,2.60
2019-01-15T00:20:53.904Z,2.00
2019-01-15T00:23:57.494Z,2.17
2019-01-15T00:27:01.094Z,1.83
2019-01-15T00:30:06.211Z,1.80
2019-01-15T00:33:09.652Z,2.00
2019-01-15T00:36:13.189Z,1.60
2019-01-15T00:39:16.772Z,1.83
2019-01-15T00:42:20.377Z,2.00
2019-01-15T00:45:24.019Z,1.83
2019-01-15T00:48:27.669Z,1.90
2019-01-15T00:51:31.242Z,1.70
2019-01-15T00:54:34.704Z,1.90
2019-01-15T00:57:38.550Z,1.60
2019-01-15T01:00:42.192Z,2.10
2019-01-15T01:03:45.754Z,1.67
2019-01-15T01:06:49.358Z,1.90
2019-01-15T01:09:53.064Z,1.67
2019-01-15T01:12:56.678Z,1.67
2019-01-15T01:16:00.152Z,2.07
2019-01-15T01:19:03.696Z,2.00
2019-01-15T01:22:07.136Z,1.73
2019-01-15T01:25:11.704Z,1.93
2019-01-15T01:28:15.305Z,1.80
2019-01-15T01:31:19.009Z,1.50
2019-01-15T01:34:22.570Z,1.90
2019-01-15T01:37:26.197Z,1.70
2019-01-15T01:40:29.780Z,1.60
2019-01-15T01:43:33.300Z,1.73
2019-01-15T01:46:36.854Z,1.50
2019-01-15T01:49:40.463Z,1.60
2019-01-15T01:52:44.600Z,2.03
2019-01-15T01:55:48.172Z,1.90
2019-01-15T01:58:51.717Z,1.70
2019-01-15T02:01:55.323Z,1.50
2019-01-15T02:04:58.984Z,1.73
2019-01-15T02:08:02.587Z,1.80
2019-01-15T02:11:06.146Z,1.43
2019-01-15T02:14:09.952Z,1.50
2019-01-15T02:17:13.598Z,1.73
2019-01-15T02:20:17.579Z,1.80
2019-01-15T02:23:21.187Z,1.83
2019-01-15T02:26:24.786Z,1.40
2019-01-15T02:29:28.327Z,1.60
2019-01-15T02:32:31.898Z,1.90
2019-01-15T02:35:35.397Z,1.53
2019-01-15T02:38:38.907Z,2.00
2019-01-15T02:41:42.540Z,1.77
2019-01-15T02:44:46.019Z,2.20
2019-01-15T02:47:49.537Z,2.27
2019-01-15T02:50:54.177Z,2.10
2019-01-15T02:53:58.887Z,2.10
2019-01-15T02:57:01.194Z,1.47
2019-01-15T03:00:08.921Z,1.90
2019-01-15T03:03:12.454Z,1.80
2019-01-15T03:06:15.998Z,2.07
2019-01-15T03:09:20.607Z,2.13
2019-01-15T03:12:24.236Z,2.07
2019-01-15T03:15:27.686Z,1.87
2019-01-15T03:18:31.266Z,2.00
2019-01-15T03:21:34.824Z,2.00
2019-01-15T03:24:39.434Z,2.10
2019-01-15T03:27:43.174Z,2.00
2019-01-15T03:30:47.147Z,2.00
2019-01-15T03:33:50.761Z,2.17
2019-01-15T03:36:54.347Z,2.00
2019-01-15T03:39:57.860Z,2.47
2019-01-15T03:43:03.797Z,2.13
2019-01-15T03:46:05.072Z,2.20
2019-01-15T03:49:08.689Z,2.53
2019-01-15T03:52:12.274Z,2.33
2019-01-15T03:55:16.152Z,2.07
2019-01-15T03:58:19.792Z,2.27
2019-01-15T04:01:23.289Z,2.40
2019-01-15T04:04:26.765Z,2.83
2019-01-15T04:07:30.439Z,2.60
2019-01-15T04:10:33.987Z,3.00
2019-01-15T04:13:37.496Z,3.17
2019-01-15T04:16:40.933Z,2.90
2019-01-15T04:19:44.499Z,3.00
2019-01-15T04:22:48.073Z,3.53
2019-01-15T04:25:51.598Z,2.87
2019-01-15T04:28:55.217Z,3.17
2019-01-15T04:31:58.700Z,3.33
2019-01-15T04:35:02.196Z,3.37
2019-01-15T04:38:05.873Z,3.40
2019-01-15T04:41:09.472Z,3.33
2019-01-15T04:44:13.006Z,3.37
2019-01-15T04:47:16.553Z,3.33
2019-01-15T04:50:20.099Z,3.50
2019-01-15T04:53:23.822Z,3.83
2019-01-15T04:56:27.437Z,3.13
2019-01-15T04:59:30.946Z,3.13
2019-01-15T05:02:34.518Z,3.70
2019-01-15T05:05:38.212Z,3.70
2019-01-15T05:08:41.738Z,3.70
2019-01-15T05:11:45.298Z,4.77
2019-01-15T05:14:48.728Z,3.80
2019-01-15T05:17:52.333Z,3.90
2019-01-15T05:20:56.974Z,4.70
2019-01-15T05:23:59.400Z,4.53
2019-01-15T05:27:02.944Z,4.67
2019-01-15T05:30:09.641Z,5.00
2019-01-15T05:33:13.330Z,4.47
2019-01-15T05:36:17.025Z,4.00
2019-01-15T05:39:20.561Z,3.57
2019-01-15T05:42:24.158Z,3.70
2019-01-15T05:45:30.672Z,4.20
2019-01-15T05:48:37.015Z,3.97
2019-01-15T05:51:42.935Z,3.30
2019-01-15T05:54:46.511Z,3.63
2019-01-15T05:57:50.146Z,3.60
2019-01-15T06:00:53.710Z,3.80
2019-01-15T06:03:57.307Z,3.43
2019-01-15T06:07:01.100Z,3.33
2019-01-15T06:10:05.539Z,3.37
2019-01-15T06:13:09.297Z,4.23
2019-01-15T06:16:13.021Z,3.70
2019-01-15T06:19:16.781Z,4.07
2019-01-15T06:22:20.395Z,4.13
2019-01-15T06:25:24.002Z,4.07
2019-01-15T06:28:31.628Z,4.00
2019-01-15T06:31:35.334Z,3.90
2019-01-15T06:34:38.961Z,3.90
2019-01-15T06:37:42.655Z,3.60
2019-01-15T06:40:46.374Z,4.20
2019-01-15T06:43:50.380Z,4.10
2019-01-15T06:46:54.149Z,3.63
2019-01-15T06:49:57.722Z,4.43
2019-01-15T06:53:01.355Z,4.73
2019-01-15T06:56:05.320Z,4.67
2019-01-15T06:59:09.111Z,4.57
2019-01-15T07:02:13.740Z,4.03
2019-01-15T07:05:18.076Z,4.73
2019-01-15T07:08:22.697Z,4.33
2019-01-15T07:11:26.304Z,4.97
2019-01-15T07:14:29.812Z,4.63
2019-01-15T07:17:33.682Z,5.27
2019-01-15T07:20:37.591Z,4.40
2019-01-15T07:23:41.452Z,4.63
2019-01-15T07:26:45.376Z,4.87
2019-01-15T07:29:49.188Z,4.40
2019-01-15T07:32:52.886Z,5.63
2019-01-15T07:35:56.816Z,4.63
2019-01-15T07:39:00.719Z,4.83
2019-01-15T07:42:04.365Z,5.23
2019-01-15T07:45:09.962Z,5.20
2019-01-15T07:48:13.613Z,5.33
2019-01-15T07:51:17.215Z,5.83
2019-01-15T07:54:20.805Z,5.10
2019-01-15T07:57:24.430Z,5.23
2019-01-15T08:00:28.126Z,6.13
2019-01-15T08:03:31.746Z,5.63
2019-01-15T08:06:35.259Z,5.83
2019-01-15T08:09:38.844Z,6.17
2019-01-15T08:12:42.367Z,6.27
2019-01-15T08:15:45.970Z,6.90
2019-01-15T08:18:49.524Z,6.63
2019-01-15T08:21:53.137Z,6.87
2019-01-15T08:24:58.729Z,6.23
2019-01-15T08:28:02.183Z,6.63
2019-01-15T08:31:05.620Z,6.17
2019-01-15T08:34:09.337Z,6.73
2019-01-15T08:37:12.906Z,7.00
2019-01-15T08:40:17.634Z,6.03
2019-01-15T08:43:21.319Z,6.23
2019-01-15T08:46:24.908Z,6.43
2019-01-15T08:49:28.528Z,6.87
2019-01-15T08:52:32.050Z,6.20
2019-01-15T08:55:35.672Z,6.50
2019-01-15T08:58:40.283Z,6.17
2019-01-15T09:01:43.897Z,6.20
2019-01-15T09:04:47.559Z,6.27
2019-01-15T09:07:51.052Z,6.43
2019-01-15T09:10:54.714Z,5.83
2019-01-15T09:13:58.299Z,6.33
2019-01-15T09:17:02.031Z,5.20
2019-01-15T09:20:07.561Z,6.23
2019-01-15T09:23:11.122Z,6.40
2019-01-15T09:26:15.434Z,6.73
2019-01-15T09:29:18.346Z,6.57
2019-01-15T09:32:21.983Z,6.77
2019-01-15T09:35:25.427Z,6.37
2019-01-15T09:38:29.047Z,6.67
2019-01-15T09:41:32.538Z,6.33
2019-01-15T09:44:36.157Z,7.17
2019-01-15T09:47:39.807Z,6.73
2019-01-15T09:50:43.474Z,6.73
2019-01-15T09:53:46.887Z,6.93
2019-01-15T09:56:50.560Z,7.17
2019-01-15T09:59:54.063Z,6.77
2019-01-15T10:02:57.624Z,6.77
2019-01-15T10:06:01.066Z,7.13
2019-01-15T10:09:08.077Z,7.70
2019-01-15T10:12:10.735Z,7.37
2019-01-15T10:15:15.310Z,6.77
2019-01-15T10:18:18.825Z,6.60
2019-01-15T10:21:22.344Z,7.60
2019-01-15T10:24:25.871Z,6.60
2019-01-15T10:27:29.540Z,6.60
2019-01-15T10:30:39.423Z,6.20
2019-01-15T10:33:49.263Z,6.63
2019-01-15T10:36:51.461Z,6.07
2019-01-15T10:39:55.238Z,6.47
2019-01-15T10:42:58.761Z,6.13
2019-01-15T10:46:02.424Z,6.03
2019-01-15T10:49:05.967Z,6.67
2019-01-15T10:52:09.594Z,5.73
2019-01-15T10:55:13.179Z,6.00
2019-01-15T10:58:17.691Z,6.30
2019-01-15T11:01:20.206Z,6.03
2019-01-15T11:04:23.720Z,6.20
2019-01-15T11:07:27.378Z,6.23
2019-01-15T11:10:31.033Z,6.30
2019-01-15T11:13:34.670Z,7.50
2019-01-15T11:16:38.206Z,6.50
2019-01-15T11:19:41.741Z,6.53
2019-01-15T11:22:45.412Z,6.03
2019-01-15T11:25:49.928Z,7.00
2019-01-15T11:28:53.502Z,7.07
2019-01-15T11:31:57.088Z,6.57
2019-01-15T11:35:00.647Z,6.10
2019-01-15T11:38:04.373Z,6.33
2019-01-15T11:41:07.892Z,6.27
2019-01-15T11:44:11.471Z,6.47
2019-01-15T11:47:15.004Z,6.50
2019-01-15T11:50:18.574Z,6.20
2019-01-15T11:53:22.151Z,6.70
2019-01-15T11:56:25.602Z,6.07
2019-01-15T11:59:29.425Z,6.30
2019-01-15T12:02:37.148Z,6.50
2019-01-15T12:05:54.000Z,7.03
2019-01-15T12:09:06.644Z,6.50
2019-01-15T12:12:14.385Z,6.47
2019-01-15T12:16:23.168Z,6.60
2019-01-15T12:19:43.973Z,6.33
2019-01-15T12:23:50.556Z,6.37
2019-01-15T12:26:59.282Z,6.03
2019-01-15T12:31:08.235Z,5.73
2019-01-15T12:34:17.252Z,6.77
2019-01-15T12:38:30.812Z,5.67
2019-01-15T12:41:41.514Z,6.70
2019-01-15T12:44:49.120Z,6.30
2019-01-15T12:48:03.913Z,6.20
2019-01-15T12:51:44.077Z,6.27
2019-01-15T12:55:06.961Z,6.57
2019-01-15T12:58:48.012Z,6.30
2019-01-15T13:02:03.500Z,6.13
2019-01-15T13:05:12.472Z,6.07
2019-01-15T13:08:21.348Z,6.80
2019-01-15T13:11:28.987Z,6.33
2019-01-15T13:15:43.599Z,5.90
2019-01-15T13:18:51.373Z,6.40
2019-01-15T13:22:04.023Z,6.17
2019-01-15T13:25:28.045Z,6.40
2019-01-15T13:30:42.436Z,6.20
2019-01-15T13:33:50.900Z,7.37
2019-01-15T13:36:59.651Z,6.40
2019-01-15T13:40:10.360Z,6.23
2019-01-15T13:43:27.918Z,6.80
2019-01-15T13:46:38.503Z,6.70
2019-01-15T13:49:46.273Z,6.80
2019-01-15T13:52:53.819Z,6.77
2019-01-15T13:56:02.420Z,7.20
2019-01-15T13:59:17.916Z,7.17
2019-01-15T14:04:37.769Z,7.07
2019-01-15T14:07:46.610Z,7.33
2019-01-15T14:10:54.535Z,7.30
2019-01-15T14:14:02.303Z,6.80
2019-01-15T14:17:16.299Z,7.07
2019-01-15T14:21:28.000Z,6.97
2019-01-15T14:24:35.933Z,7.30
2019-01-15T14:27:43.637Z,7.73
2019-01-15T14:31:08.470Z,6.60
2019-01-15T14:35:16.344Z,7.13
2019-01-15T14:38:27.971Z,6.67
2019-01-15T14:41:38.883Z,6.50
2019-01-15T14:44:47.757Z,7.27
2019-01-15T14:48:16.523Z,6.40
2019-01-15T14:51:24.325Z,6.73
2019-01-15T14:54:33.969Z,6.60
2019-01-15T14:57:44.629Z,7.13
2019-01-15T15:01:08.402Z,6.90
2019-01-15T15:05:20.059Z,7.27
2019-01-15T15:08:33.701Z,7.10
2019-01-15T15:11:43.079Z,6.63
2019-01-15T15:14:53.763Z,6.43
2019-01-15T15:18:02.488Z,6.40
2019-01-15T15:21:13.106Z,6.67
2019-01-15T15:24:24.017Z,5.93
2019-01-15T15:27:36.677Z,6.60
2019-01-15T15:30:53.497Z,6.27
2019-01-15T15:34:02.446Z,5.67
2019-01-15T15:37:11.328Z,7.03
2019-01-15T15:40:19.989Z,5.87
2019-01-15T15:43:28.983Z,6.37
2019-01-15T15:46:39.021Z,5.77
2019-01-15T15:49:55.697Z,6.17
2019-01-15T15:53:04.514Z,6.03
2019-01-15T15:56:17.172Z,5.90
2019-01-15T16:01:28.694Z,5.97
2019-01-15T16:04:37.589Z,5.33
2019-01-15T16:07:47.055Z,5.07
2019-01-15T16:11:57.387Z,5.33
2019-01-15T16:15:06.048Z,5.77
2019-01-15T16:18:14.637Z,5.57
2019-01-15T16:21:29.537Z,5.33
2019-01-15T16:24:39.201Z,4.97
2019-01-15T16:28:45.878Z,5.10
2019-01-15T16:31:55.690Z,5.10
2019-01-15T16:35:04.609Z,5.00
2019-01-15T16:38:12.457Z,4.90
2019-01-15T16:42:18.836Z,5.83
2019-01-15T16:45:57.774Z,5.30
2019-01-15T16:49:09.334Z,5.17
2019-01-15T16:52:22.061Z,4.83
2019-01-15T16:55:30.892Z,4.80
2019-01-15T16:58:53.694Z,4.50
2019-01-15T17:02:05.354Z,4.40
2019-01-15T17:05:15.939Z,4.93
2019-01-15T17:08:23.754Z,7.77
2019-01-15T17:11:35.399Z,4.43
2019-01-15T17:14:44.170Z,4.37
2019-01-15T17:19:57.025Z,4.40
2019-01-15T17:23:07.851Z,5.00
2019-01-15T17:26:17.460Z,6.37
2019-01-15T17:29:28.220Z,5.10
2019-01-15T17:32:38.903Z,5.50
2019-01-15T17:35:47.847Z,4.80
2019-01-15T17:38:56.742Z,4.80
2019-01-15T17:43:04.189Z,5.20
2019-01-15T17:46:25.106Z,4.70
2019-01-15T17:49:35.203Z,5.47
2019-01-15T17:52:43.710Z,5.47
2019-01-15T17:55:52.762Z,5.50
2019-01-15T17:59:03.468Z,4.93
2019-01-15T18:04:19.716Z,5.40
2019-01-15T18:09:35.748Z,5.27
2019-01-15T18:12:57.382Z,5.27
2019-01-15T18:16:07.491Z,4.93
2019-01-15T18:19:17.651Z,5.47
2019-01-15T18:22:26.604Z,5.10
2019-01-15T18:25:38.665Z,5.10
2019-01-15T18:28:46.492Z,4.43
2019-01-15T18:31:56.303Z,5.60
2019-01-15T18:35:05.660Z,4.90
2019-01-15T18:38:28.934Z,4.73
2019-01-15T18:41:43.712Z,4.60
2019-01-15T18:45:53.879Z,4.03
2019-01-15T18:49:16.761Z,4.33
2019-01-15T18:52:26.745Z,4.40
2019-01-15T18:55:35.951Z,4.57
2019-01-15T18:59:45.461Z,4.40
2019-01-15T19:02:54.537Z,4.13
2019-01-15T19:06:05.368Z,4.43
2019-01-15T19:09:14.445Z,4.73
2019-01-15T19:12:23.375Z,4.50
2019-01-15T19:15:34.196Z,4.57
2019-01-15T19:18:45.875Z,4.90
2019-01-15T19:21:54.716Z,5.10
2019-01-15T19:27:11.014Z,4.67
2019-01-15T19:30:19.713Z,4.83
2019-01-15T19:33:37.799Z,4.73
2019-01-15T19:37:00.703Z,5.03
2019-01-15T19:40:14.149Z,5.57
2019-01-15T19:45:31.237Z,4.83
2019-01-15T19:48:47.179Z,4.80
2019-01-15T19:51:58.057Z,5.43
2019-01-15T19:55:24.948Z,5.13
2019-01-15T19:58:37.715Z,5.67
2019-01-15T20:03:51.011Z,5.43
2019-01-15T20:07:02.731Z,5.47
2019-01-15T20:10:19.257Z,6.03
2019-01-15T20:13:28.253Z,6.23
2019-01-15T20:16:41.348Z,5.70
2019-01-15T20:19:50.248Z,5.70
2019-01-15T20:23:30.714Z,6.00
2019-01-15T20:27:45.755Z,5.80
2019-01-15T20:30:55.480Z,5.00
2019-01-15T20:34:10.418Z,5.10
2019-01-15T20:37:23.422Z,5.23
2019-01-15T20:40:32.455Z,5.40
2019-01-15T20:43:46.323Z,4.93
2019-01-15T20:47:28.800Z,5.50
2019-01-15T20:50:52.642Z,4.83
2019-01-15T20:54:01.447Z,4.90
2019-01-15T20:58:08.571Z,5.03
2019-01-15T21:01:20.374Z,5.40
2019-01-15T21:04:31.188Z,5.37
2019-01-15T21:07:45.140Z,5.30
2019-01-15T21:11:57.061Z,5.37
2019-01-15T21:15:07.010Z,5.60
2019-01-15T21:20:20.106Z,6.23
2019-01-15T21:23:35.986Z,6.07
2019-01-15T21:26:43.764Z,5.70
2019-01-15T21:29:52.388Z,5.70
2019-01-15T21:33:32.410Z,5.97
2019-01-15T21:36:41.306Z,6.03
2019-01-15T21:39:51.457Z,6.37
2019-01-15T21:43:03.267Z,6.23
2019-01-15T21:46:11.203Z,6.00
2019-01-15T21:49:28.018Z,5.87
2019-01-15T21:52:37.028Z,5.27
2019-01-15T21:55:49.895Z,5.40
2019-01-15T21:58:58.801Z,4.57
2019-01-15T22:02:09.646Z,4.50
2019-01-15T22:05:18.577Z,5.27
2019-01-15T22:10:32.346Z,4.87
2019-01-15T22:13:58.194Z,4.37
2019-01-15T22:17:11.044Z,4.30
2019-01-15T22:20:19.876Z,4.40
2019-01-15T22:24:29.002Z,4.37
2019-01-15T22:27:38.752Z,4.00
2019-01-15T22:30:47.532Z,4.03
2019-01-15T22:34:01.336Z,3.70
2019-01-15T22:37:10.474Z,3.67
2019-01-15T22:40:19.470Z,4.00
2019-01-15T22:43:29.210Z,4.37
2019-01-15T22:46:37.264Z,4.10
2019-01-15T22:50:45.813Z,3.97
2019-01-15T22:54:30.040Z,3.77
2019-01-15T22:57:53.977Z,4.33
2019-01-15T23:01:03.240Z,3.77
2019-01-15T23:04:16.944Z,4.23
2019-01-15T23:07:25.850Z,3.80
2019-01-15T23:10:34.989Z,3.87
2019-01-15T23:13:45.668Z,4.07
2019-01-15T23:16:57.588Z,4.47
2019-01-15T23:20:21.570Z,3.80
2019-01-15T23:23:34.200Z,4.10
2019-01-15T23:27:44.880Z,4.90
2019-01-15T23:31:24.048Z,3.60
2019-01-15T23:34:35.808Z,4.60
2019-01-15T23:38:48.752Z,4.00
2019-01-15T23:42:55.634Z,4.27
2019-01-15T23:48:12.491Z,4.00
2019-01-15T23:51:27.152Z,4.27
2019-01-15T23:55:39.695Z,4.37
2019-01-15T23:58:49.795Z,4.30
